sensor_id;sensor_type;location;lat;lon;timestamp;temperature;humidity
26164;DHT22;13914;48.178;11.716;2023-01-10T00:01:12;4.40;99.90
26164;DHT22;13914;48.178;11.716;2023-01-10T00:03:38;4.40;99.90
26164;DHT22;13914;48.178;11.716;2023-01-10T00:06:03;4.40;99.90
26164;DHT22;13914;48.178;11.716;2023-01-10T00:08:29;4.30;99.90
26164;DHT22;13914;48.178;11.716;2023-01-10T00:10:55;4.30;99.90
26164;DHT22;13914;48.178;11.716;2023-01-10T00:13:20;4.30;99.90
26164;DHT22;13914;48.178;11.716;2023-01-10T00:15:49;4.30;99.90
26164;DHT22;13914;48.178;11.716;2023-01-10T00:18:19;4.30;99.90
26164;DHT22;13914;48.178;11.716;2023-01-10T00:20:45;4.30;99.90
26164;DHT22;13914;48.178;11.716;2023-01-10T00:23:12;4.30;99.90
26164;DHT22;13914;48.178;11.716;2023-01-10T00:25:38;4.40;99.90
26164;DHT22;13914;48.178;11.716;2023-01-10T00:28:03;4.30;99.90
26164;DHT22;13914;48.178;11.716;2023-01-10T00:30:39;4.30;99.90
26164;DHT22;13914;48.178;11.716;2023-01-10T00:33:05;4.30;99.90
26164;DHT22;13914;48.178;11.716;2023-01-10T00:35:32;4.30;99.90
26164;DHT22;13914;48.178;11.716;2023-01-10T00:37:58;4.30;99.90
26164;DHT22;13914;48.178;11.716;2023-01-10T00:40:30;4.30;99.90
26164;DHT22;13914;48.178;11.716;2023-01-10T00:42:57;4.40;99.90
26164;DHT22;13914;48.178;11.716;2023-01-10T00:45:43;4.30;99.90
26164;DHT22;13914;48.178;11.716;2023-01-10T00:48:12;4.30;99.90
26164;DHT22;13914;48.178;11.716;2023-01-10T00:50:38;4.30;99.90
26164;DHT22;13914;48.178;11.716;2023-01-10T00:53:04;4.30;99.90
26164;DHT22;13914;48.178;11.716;2023-01-10T00:55:30;4.30;99.90
26164;DHT22;13914;48.178;11.716;2023-01-10T00:57:56;4.30;99.90
26164;DHT22;13914;48.178;11.716;2023-01-10T01:00:22;4.30;99.90
26164;DHT22;13914;48.178;11.716;2023-01-10T01:02:48;4.30;99.90
26164;DHT22;13914;48.178;11.716;2023-01-10T01:05:16;4.30;99.90
26164;DHT22;13914;48.178;11.716;2023-01-10T01:07:42;4.30;99.90
26164;DHT22;13914;48.178;11.716;2023-01-10T01:10:08;4.30;99.90
26164;DHT22;13914;48.178;11.716;2023-01-10T01:13:05;4.30;99.90
26164;DHT22;13914;48.178;11.716;2023-01-10T01:15:33;4.30;99.90
26164;DHT22;13914;48.178;11.716;2023-01-10T01:17:59;4.30;99.90
26164;DHT22;13914;48.178;11.716;2023-01-10T01:20:25;4.30;99.90
26164;DHT22;13914;48.178;11.716;2023-01-10T01:22:51;4.30;99.90
26164;DHT22;13914;48.178;11.716;2023-01-10T01:25:17;4.30;99.90
26164;DHT22;13914;48.178;11.716;2023-01-10T01:27:43;4.30;99.90
26164;DHT22;13914;48.178;11.716;2023-01-10T01:30:09;4.30;99.90
26164;DHT22;13914;48.178;11.716;2023-01-10T01:32:35;4.30;99.90
26164;DHT22;13914;48.178;11.716;2023-01-10T01:35:01;4.30;99.90
26164;DHT22;13914;48.178;11.716;2023-01-10T01:37:26;4.30;99.90
26164;DHT22;13914;48.178;11.716;2023-01-10T01:39:52;4.30;99.90
26164;DHT22;13914;48.178;11.716;2023-01-10T01:42:25;4.30;99.90
26164;DHT22;13914;48.178;11.716;2023-01-10T01:47:49;4.30;99.90
26164;DHT22;13914;48.178;11.716;2023-01-10T01:50:21;4.30;99.90
26164;DHT22;13914;48.178;11.716;2023-01-10T01:52:51;4.30;99.90
26164;DHT22;13914;48.178;11.716;2023-01-10T01:55:19;4.20;99.90
26164;DHT22;13914;48.178;11.716;2023-01-10T01:57:45;4.30;99.90
26164;DHT22;13914;48.178;11.716;2023-01-10T02:00:11;4.30;99.90
26164;DHT22;13914;48.178;11.716;2023-01-10T02:02:38;4.30;99.90
26164;DHT22;13914;48.178;11.716;2023-01-10T02:05:09;4.30;99.90
26164;DHT22;13914;48.178;11.716;2023-01-10T02:07:36;4.30;99.90
26164;DHT22;13914;48.178;11.716;2023-01-10T02:10:08;4.30;99.90
26164;DHT22;13914;48.178;11.716;2023-01-10T02:12:36;4.30;99.90
26164;DHT22;13914;48.178;11.716;2023-01-10T02:15:03;4.30;99.90
26164;DHT22;13914;48.178;11.716;2023-01-10T02:17:29;4.30;99.90
26164;DHT22;13914;48.178;11.716;2023-01-10T02:31:23;4.20;99.90
26164;DHT22;13914;48.178;11.716;2023-01-10T02:33:56;4.20;99.90
26164;DHT22;13914;48.178;11.716;2023-01-10T02:42:06;4.20;99.90
26164;DHT22;13914;48.178;11.716;2023-01-10T02:44:49;4.20;99.90
26164;DHT22;13914;48.178;11.716;2023-01-10T02:47:36;4.20;99.90
26164;DHT22;13914;48.178;11.716;2023-01-10T02:50:21;4.20;99.90
26164;DHT22;13914;48.178;11.716;2023-01-10T02:53:08;4.20;99.90
26164;DHT22;13914;48.178;11.716;2023-01-10T03:01:19;4.20;99.90
26164;DHT22;13914;48.178;11.716;2023-01-10T03:06:45;4.20;99.90
26164;DHT22;13914;48.178;11.716;2023-01-10T03:09:31;4.20;99.90
26164;DHT22;13914;48.178;11.716;2023-01-10T03:12:24;4.20;99.90
26164;DHT22;13914;48.178;11.716;2023-01-10T03:14:56;4.20;99.90
26164;DHT22;13914;48.178;11.716;2023-01-10T03:17:22;4.20;99.90
26164;DHT22;13914;48.178;11.716;2023-01-10T03:19:50;4.20;99.90
26164;DHT22;13914;48.178;11.716;2023-01-10T03:22:17;4.20;99.90
26164;DHT22;13914;48.178;11.716;2023-01-10T03:24:49;4.20;99.90
26164;DHT22;13914;48.178;11.716;2023-01-10T03:32:45;4.20;99.90
26164;DHT22;13914;48.178;11.716;2023-01-10T03:35:10;4.20;99.90
26164;DHT22;13914;48.178;11.716;2023-01-10T03:38:01;4.10;99.90
26164;DHT22;13914;48.178;11.716;2023-01-10T03:40:35;4.20;99.90
26164;DHT22;13914;48.178;11.716;2023-01-10T03:43:28;4.20;99.90
26164;DHT22;13914;48.178;11.716;2023-01-10T03:46:17;4.10;99.90
26164;DHT22;13914;48.178;11.716;2023-01-10T03:48:48;4.10;99.90
26164;DHT22;13914;48.178;11.716;2023-01-10T03:51:14;4.10;99.90
26164;DHT22;13914;48.178;11.716;2023-01-10T03:53:42;4.10;99.90
26164;DHT22;13914;48.178;11.716;2023-01-10T03:56:11;4.10;99.90
26164;DHT22;13914;48.178;11.716;2023-01-10T03:58:38;4.10;99.90
26164;DHT22;13914;48.178;11.716;2023-01-10T04:01:03;4.10;99.90
26164;DHT22;13914;48.178;11.716;2023-01-10T04:03:29;4.10;99.90
26164;DHT22;13914;48.178;11.716;2023-01-10T04:05:55;4.10;99.90
26164;DHT22;13914;48.178;11.716;2023-01-10T04:08:20;4.10;99.90
26164;DHT22;13914;48.178;11.716;2023-01-10T04:10:49;4.10;99.90
26164;DHT22;13914;48.178;11.716;2023-01-10T04:13:14;4.10;99.90
26164;DHT22;13914;48.178;11.716;2023-01-10T04:15:40;4.10;99.90
26164;DHT22;13914;48.178;11.716;2023-01-10T04:18:06;4.10;99.90
26164;DHT22;13914;48.178;11.716;2023-01-10T04:20:31;4.10;99.90
26164;DHT22;13914;48.178;11.716;2023-01-10T04:22:57;4.10;99.90
26164;DHT22;13914;48.178;11.716;2023-01-10T04:25:23;4.10;99.90
26164;DHT22;13914;48.178;11.716;2023-01-10T04:27:49;4.10;99.90
26164;DHT22;13914;48.178;11.716;2023-01-10T04:30:16;4.10;99.90
26164;DHT22;13914;48.178;11.716;2023-01-10T04:32:42;4.10;99.90
26164;DHT22;13914;48.178;11.716;2023-01-10T04:35:07;4.10;99.90
26164;DHT22;13914;48.178;11.716;2023-01-10T04:37:33;4.10;99.90
26164;DHT22;13914;48.178;11.716;2023-01-10T04:39:59;4.10;99.90
26164;DHT22;13914;48.178;11.716;2023-01-10T04:42:25;4.10;99.90
26164;DHT22;13914;48.178;11.716;2023-01-10T04:44:50;4.10;99.90
26164;DHT22;13914;48.178;11.716;2023-01-10T04:47:16;4.10;99.90
26164;DHT22;13914;48.178;11.716;2023-01-10T04:49:42;4.00;99.90
26164;DHT22;13914;48.178;11.716;2023-01-10T04:52:08;4.00;99.90
26164;DHT22;13914;48.178;11.716;2023-01-10T04:54:34;4.10;99.90
26164;DHT22;13914;48.178;11.716;2023-01-10T04:57:00;4.10;99.90
26164;DHT22;13914;48.178;11.716;2023-01-10T04:59:26;4.10;99.90
26164;DHT22;13914;48.178;11.716;2023-01-10T05:01:51;4.10;99.90
26164;DHT22;13914;48.178;11.716;2023-01-10T05:04:17;4.00;99.90
26164;DHT22;13914;48.178;11.716;2023-01-10T05:06:43;4.00;99.90
26164;DHT22;13914;48.178;11.716;2023-01-10T05:09:08;4.00;99.90
26164;DHT22;13914;48.178;11.716;2023-01-10T05:11:34;4.00;99.90
26164;DHT22;13914;48.178;11.716;2023-01-10T05:14:00;4.00;99.90
26164;DHT22;13914;48.178;11.716;2023-01-10T05:16:26;4.00;99.90
26164;DHT22;13914;48.178;11.716;2023-01-10T05:18:52;4.00;99.90
26164;DHT22;13914;48.178;11.716;2023-01-10T05:21:18;4.00;99.90
26164;DHT22;13914;48.178;11.716;2023-01-10T05:23:44;4.00;99.90
26164;DHT22;13914;48.178;11.716;2023-01-10T05:26:13;4.00;99.90
26164;DHT22;13914;48.178;11.716;2023-01-10T05:28:41;4.00;99.90
26164;DHT22;13914;48.178;11.716;2023-01-10T05:31:07;4.00;99.90
26164;DHT22;13914;48.178;11.716;2023-01-10T05:33:34;4.00;99.90
26164;DHT22;13914;48.178;11.716;2023-01-10T05:36:00;4.00;99.90
26164;DHT22;13914;48.178;11.716;2023-01-10T05:38:27;4.00;99.90
26164;DHT22;13914;48.178;11.716;2023-01-10T05:40:54;4.00;99.90
26164;DHT22;13914;48.178;11.716;2023-01-10T05:43:21;4.00;99.90
26164;DHT22;13914;48.178;11.716;2023-01-10T05:45:47;4.00;99.90
26164;DHT22;13914;48.178;11.716;2023-01-10T05:48:12;4.00;99.90
26164;DHT22;13914;48.178;11.716;2023-01-10T05:50:38;4.00;99.90
26164;DHT22;13914;48.178;11.716;2023-01-10T05:53:04;4.00;99.90
26164;DHT22;13914;48.178;11.716;2023-01-10T05:55:30;4.00;99.90
26164;DHT22;13914;48.178;11.716;2023-01-10T05:57:56;4.00;99.90
26164;DHT22;13914;48.178;11.716;2023-01-10T06:00:22;4.00;99.90
26164;DHT22;13914;48.178;11.716;2023-01-10T06:02:48;4.00;99.90
26164;DHT22;13914;48.178;11.716;2023-01-10T06:05:13;4.00;99.90
26164;DHT22;13914;48.178;11.716;2023-01-10T06:07:39;4.00;99.90
26164;DHT22;13914;48.178;11.716;2023-01-10T06:10:05;4.00;99.90
26164;DHT22;13914;48.178;11.716;2023-01-10T06:12:31;4.00;99.90
26164;DHT22;13914;48.178;11.716;2023-01-10T06:14:56;4.00;99.90
26164;DHT22;13914;48.178;11.716;2023-01-10T06:17:22;4.00;99.90
26164;DHT22;13914;48.178;11.716;2023-01-10T06:19:48;4.00;99.90
26164;DHT22;13914;48.178;11.716;2023-01-10T06:22:14;4.00;99.90
26164;DHT22;13914;48.178;11.716;2023-01-10T06:24:40;4.00;99.90
26164;DHT22;13914;48.178;11.716;2023-01-10T06:27:06;3.90;99.90
26164;DHT22;13914;48.178;11.716;2023-01-10T06:29:32;3.90;99.90
26164;DHT22;13914;48.178;11.716;2023-01-10T06:31:58;3.90;99.90
26164;DHT22;13914;48.178;11.716;2023-01-10T06:34:24;3.90;99.90
26164;DHT22;13914;48.178;11.716;2023-01-10T06:36:50;4.00;99.90
26164;DHT22;13914;48.178;11.716;2023-01-10T06:39:15;3.90;99.90
26164;DHT22;13914;48.178;11.716;2023-01-10T06:41:41;3.90;99.90
26164;DHT22;13914;48.178;11.716;2023-01-10T06:44:07;4.00;99.90
26164;DHT22;13914;48.178;11.716;2023-01-10T06:46:33;3.90;99.90
26164;DHT22;13914;48.178;11.716;2023-01-10T06:48:58;3.90;99.90
26164;DHT22;13914;48.178;11.716;2023-01-10T06:51:24;3.90;99.90
26164;DHT22;13914;48.178;11.716;2023-01-10T06:53:50;3.90;99.90
26164;DHT22;13914;48.178;11.716;2023-01-10T06:56:15;4.00;99.90
26164;DHT22;13914;48.178;11.716;2023-01-10T06:58:41;3.90;99.90
26164;DHT22;13914;48.178;11.716;2023-01-10T07:01:14;3.90;99.90
26164;DHT22;13914;48.178;11.716;2023-01-10T07:03:40;3.90;99.90
26164;DHT22;13914;48.178;11.716;2023-01-10T07:06:06;3.90;99.90
26164;DHT22;13914;48.178;11.716;2023-01-10T07:08:44;3.90;99.90
26164;DHT22;13914;48.178;11.716;2023-01-10T07:11:11;3.90;99.90
26164;DHT22;13914;48.178;11.716;2023-01-10T07:13:38;3.90;99.90
26164;DHT22;13914;48.178;11.716;2023-01-10T07:16:04;3.90;99.90
26164;DHT22;13914;48.178;11.716;2023-01-10T07:18:35;3.90;99.90
26164;DHT22;13914;48.178;11.716;2023-01-10T07:21:02;3.90;99.90
26164;DHT22;13914;48.178;11.716;2023-01-10T07:23:27;3.90;99.90
26164;DHT22;13914;48.178;11.716;2023-01-10T07:25:55;3.90;99.90
26164;DHT22;13914;48.178;11.716;2023-01-10T07:28:22;3.90;99.90
26164;DHT22;13914;48.178;11.716;2023-01-10T07:30:48;3.90;99.90
26164;DHT22;13914;48.178;11.716;2023-01-10T07:33:14;3.90;99.90
26164;DHT22;13914;48.178;11.716;2023-01-10T07:35:39;3.90;99.90
26164;DHT22;13914;48.178;11.716;2023-01-10T07:38:05;3.90;99.90
26164;DHT22;13914;48.178;11.716;2023-01-10T07:40:33;3.90;99.90
26164;DHT22;13914;48.178;11.716;2023-01-10T07:42:59;3.90;99.90
26164;DHT22;13914;48.178;11.716;2023-01-10T07:45:25;3.90;99.90
26164;DHT22;13914;48.178;11.716;2023-01-10T07:47:55;3.80;99.90
26164;DHT22;13914;48.178;11.716;2023-01-10T07:50:22;3.90;99.90
26164;DHT22;13914;48.178;11.716;2023-01-10T07:52:47;3.90;99.90
26164;DHT22;13914;48.178;11.716;2023-01-10T07:55:13;3.90;99.90
26164;DHT22;13914;48.178;11.716;2023-01-10T07:57:39;3.90;99.90
26164;DHT22;13914;48.178;11.716;2023-01-10T08:00:04;3.90;99.90
26164;DHT22;13914;48.178;11.716;2023-01-10T08:02:30;3.90;99.90
26164;DHT22;13914;48.178;11.716;2023-01-10T08:04:56;3.90;99.90
26164;DHT22;13914;48.178;11.716;2023-01-10T08:07:22;3.90;99.90
26164;DHT22;13914;48.178;11.716;2023-01-10T08:09:47;3.90;99.90
26164;DHT22;13914;48.178;11.716;2023-01-10T08:12:13;3.90;99.90
26164;DHT22;13914;48.178;11.716;2023-01-10T08:14:39;3.90;99.90
26164;DHT22;13914;48.178;11.716;2023-01-10T08:17:04;3.90;99.90
26164;DHT22;13914;48.178;11.716;2023-01-10T08:19:30;3.90;99.90
26164;DHT22;13914;48.178;11.716;2023-01-10T08:21:55;3.90;99.90
26164;DHT22;13914;48.178;11.716;2023-01-10T08:24:21;3.90;99.90
26164;DHT22;13914;48.178;11.716;2023-01-10T08:26:47;3.90;99.90
26164;DHT22;13914;48.178;11.716;2023-01-10T08:29:12;3.90;99.90
26164;DHT22;13914;48.178;11.716;2023-01-10T08:31:41;3.90;99.90
26164;DHT22;13914;48.178;11.716;2023-01-10T08:34:07;3.90;99.90
26164;DHT22;13914;48.178;11.716;2023-01-10T08:36:33;4.00;99.90
26164;DHT22;13914;48.178;11.716;2023-01-10T08:38:58;4.00;99.90
26164;DHT22;13914;48.178;11.716;2023-01-10T08:41:24;4.00;99.90
26164;DHT22;13914;48.178;11.716;2023-01-10T08:43:49;4.00;99.90
26164;DHT22;13914;48.178;11.716;2023-01-10T08:46:15;4.00;99.90
26164;DHT22;13914;48.178;11.716;2023-01-10T08:48:41;4.00;99.90
26164;DHT22;13914;48.178;11.716;2023-01-10T08:51:07;4.10;99.90
26164;DHT22;13914;48.178;11.716;2023-01-10T08:53:33;4.10;99.90
26164;DHT22;13914;48.178;11.716;2023-01-10T08:55:59;4.10;99.90
26164;DHT22;13914;48.178;11.716;2023-01-10T08:58:25;4.10;99.90
26164;DHT22;13914;48.178;11.716;2023-01-10T09:00:50;4.10;99.90
26164;DHT22;13914;48.178;11.716;2023-01-10T09:03:16;4.10;99.90
26164;DHT22;13914;48.178;11.716;2023-01-10T09:05:43;4.20;99.90
26164;DHT22;13914;48.178;11.716;2023-01-10T09:08:09;4.20;99.90
26164;DHT22;13914;48.178;11.716;2023-01-10T09:10:35;4.20;99.90
26164;DHT22;13914;48.178;11.716;2023-01-10T09:13:00;4.20;99.90
26164;DHT22;13914;48.178;11.716;2023-01-10T09:15:27;4.20;99.90
26164;DHT22;13914;48.178;11.716;2023-01-10T09:17:55;4.20;99.90
26164;DHT22;13914;48.178;11.716;2023-01-10T09:20:23;4.20;99.90
26164;DHT22;13914;48.178;11.716;2023-01-10T09:22:51;4.30;99.90
26164;DHT22;13914;48.178;11.716;2023-01-10T09:25:17;4.20;99.90
26164;DHT22;13914;48.178;11.716;2023-01-10T09:27:42;4.30;99.90
26164;DHT22;13914;48.178;11.716;2023-01-10T09:30:08;4.20;99.90
26164;DHT22;13914;48.178;11.716;2023-01-10T09:32:34;4.20;99.90
26164;DHT22;13914;48.178;11.716;2023-01-10T09:35:01;4.30;99.90
26164;DHT22;13914;48.178;11.716;2023-01-10T09:37:26;4.30;99.90
26164;DHT22;13914;48.178;11.716;2023-01-10T09:39:52;4.30;99.90
26164;DHT22;13914;48.178;11.716;2023-01-10T09:42:26;4.30;99.90
26164;DHT22;13914;48.178;11.716;2023-01-10T09:47:46;4.30;99.90
26164;DHT22;13914;48.178;11.716;2023-01-10T09:50:17;4.30;99.90
26164;DHT22;13914;48.178;11.716;2023-01-10T09:52:52;4.30;99.90
26164;DHT22;13914;48.178;11.716;2023-01-10T09:55:25;4.30;99.90
26164;DHT22;13914;48.178;11.716;2023-01-10T09:57:53;4.30;99.90
26164;DHT22;13914;48.178;11.716;2023-01-10T10:00:22;4.30;99.90
26164;DHT22;13914;48.178;11.716;2023-01-10T10:02:51;4.30;99.90
26164;DHT22;13914;48.178;11.716;2023-01-10T10:05:18;4.40;99.90
26164;DHT22;13914;48.178;11.716;2023-01-10T10:07:52;4.30;99.90
26164;DHT22;13914;48.178;11.716;2023-01-10T10:10:24;4.40;99.90
26164;DHT22;13914;48.178;11.716;2023-01-10T10:12:56;4.40;99.90
26164;DHT22;13914;48.178;11.716;2023-01-10T10:18:09;4.40;99.90
26164;DHT22;13914;48.178;11.716;2023-01-10T10:21:02;4.40;99.90
26164;DHT22;13914;48.178;11.716;2023-01-10T10:23:40;4.40;99.90
26164;DHT22;13914;48.178;11.716;2023-01-10T10:26:34;4.50;99.90
26164;DHT22;13914;48.178;11.716;2023-01-10T10:34:30;4.50;99.90
26164;DHT22;13914;48.178;11.716;2023-01-10T10:37:20;4.50;99.90
26164;DHT22;13914;48.178;11.716;2023-01-10T10:39:51;4.50;99.90
26164;DHT22;13914;48.178;11.716;2023-01-10T10:42:20;4.50;99.90
26164;DHT22;13914;48.178;11.716;2023-01-10T10:44:53;4.60;99.90
26164;DHT22;13914;48.178;11.716;2023-01-10T10:47:25;4.60;99.90
26164;DHT22;13914;48.178;11.716;2023-01-10T10:52:32;4.60;99.90
26164;DHT22;13914;48.178;11.716;2023-01-10T10:55:00;4.60;99.90
26164;DHT22;13914;48.178;11.716;2023-01-10T10:57:30;4.70;99.90
26164;DHT22;13914;48.178;11.716;2023-01-10T10:59:57;4.70;99.90
26164;DHT22;13914;48.178;11.716;2023-01-10T11:02:26;4.70;99.90
26164;DHT22;13914;48.178;11.716;2023-01-10T11:04:56;4.70;99.90
26164;DHT22;13914;48.178;11.716;2023-01-10T11:07:33;4.70;99.90
26164;DHT22;13914;48.178;11.716;2023-01-10T11:10:03;4.80;99.90
26164;DHT22;13914;48.178;11.716;2023-01-10T11:12:53;4.80;99.90
26164;DHT22;13914;48.178;11.716;2023-01-10T11:18:11;4.90;99.90
26164;DHT22;13914;48.178;11.716;2023-01-10T11:28:48;4.90;99.90
26164;DHT22;13914;48.178;11.716;2023-01-10T11:31:16;5.00;99.60
26164;DHT22;13914;48.178;11.716;2023-01-10T11:33:53;4.90;99.40
26164;DHT22;13914;48.178;11.716;2023-01-10T11:36:19;5.00;99.70
26164;DHT22;13914;48.178;11.716;2023-01-10T11:38:47;5.00;99.80
26164;DHT22;13914;48.178;11.716;2023-01-10T11:41:25;5.00;99.90
26164;DHT22;13914;48.178;11.716;2023-01-10T11:46:46;5.10;99.30
26164;DHT22;13914;48.178;11.716;2023-01-10T11:49:13;5.10;98.70
26164;DHT22;13914;48.178;11.716;2023-01-10T11:51:50;5.10;98.70
26164;DHT22;13914;48.178;11.716;2023-01-10T11:57:08;5.10;98.30
26164;DHT22;13914;48.178;11.716;2023-01-10T11:59:51;5.10;98.00
26164;DHT22;13914;48.178;11.716;2023-01-10T12:02:22;5.10;98.00
26164;DHT22;13914;48.178;11.716;2023-01-10T12:04:49;5.10;97.90
26164;DHT22;13914;48.178;11.716;2023-01-10T12:07:16;5.10;98.10
26164;DHT22;13914;48.178;11.716;2023-01-10T12:09:44;5.10;98.20
26164;DHT22;13914;48.178;11.716;2023-01-10T12:12:31;5.10;98.20
26164;DHT22;13914;48.178;11.716;2023-01-10T12:15:00;5.20;98.40
26164;DHT22;13914;48.178;11.716;2023-01-10T12:17:55;5.20;98.00
26164;DHT22;13914;48.178;11.716;2023-01-10T12:20:22;5.20;98.10
26164;DHT22;13914;48.178;11.716;2023-01-10T12:22:54;5.20;98.10
26164;DHT22;13914;48.178;11.716;2023-01-10T12:25:34;5.20;98.30
26164;DHT22;13914;48.178;11.716;2023-01-10T12:28:01;5.20;98.30
26164;DHT22;13914;48.178;11.716;2023-01-10T12:32:54;5.30;98.70
26164;DHT22;13914;48.178;11.716;2023-01-10T12:35:24;5.30;98.70
26164;DHT22;13914;48.178;11.716;2023-01-10T12:38:01;5.40;98.40
26164;DHT22;13914;48.178;11.716;2023-01-10T12:41:05;5.40;98.50
26164;DHT22;13914;48.178;11.716;2023-01-10T12:43:26;5.40;98.80
26164;DHT22;13914;48.178;11.716;2023-01-10T12:46:23;5.40;98.70
26164;DHT22;13914;48.178;11.716;2023-01-10T12:49:35;5.50;98.60
26164;DHT22;13914;48.178;11.716;2023-01-10T12:51:43;5.50;97.80
26164;DHT22;13914;48.178;11.716;2023-01-10T12:54:28;5.50;98.00
26164;DHT22;13914;48.178;11.716;2023-01-10T12:56:57;5.50;98.00
26164;DHT22;13914;48.178;11.716;2023-01-10T13:01:53;5.60;97.80
26164;DHT22;13914;48.178;11.716;2023-01-10T13:04:25;5.50;97.00
26164;DHT22;13914;48.178;11.716;2023-01-10T13:06:51;5.60;97.20
26164;DHT22;13914;48.178;11.716;2023-01-10T13:09:19;5.50;96.80
26164;DHT22;13914;48.178;11.716;2023-01-10T13:14:15;5.60;97.80
26164;DHT22;13914;48.178;11.716;2023-01-10T13:16:47;5.60;97.40
26164;DHT22;13914;48.178;11.716;2023-01-10T13:21:44;5.70;97.60
26164;DHT22;13914;48.178;11.716;2023-01-10T13:26:52;5.60;97.00
26164;DHT22;13914;48.178;11.716;2023-01-10T13:29:36;5.60;97.00
26164;DHT22;13914;48.178;11.716;2023-01-10T13:32:17;5.60;96.90
26164;DHT22;13914;48.178;11.716;2023-01-10T13:34:46;5.60;96.90
26164;DHT22;13914;48.178;11.716;2023-01-10T13:37:15;5.70;96.60
26164;DHT22;13914;48.178;11.716;2023-01-10T13:39:53;5.70;96.70
26164;DHT22;13914;48.178;11.716;2023-01-10T13:52:50;5.80;97.90
26164;DHT22;13914;48.178;11.716;2023-01-10T14:01:21;5.80;97.90
26164;DHT22;13914;48.178;11.716;2023-01-10T14:04:16;5.80;98.00
26164;DHT22;13914;48.178;11.716;2023-01-10T14:06:43;5.80;98.00
26164;DHT22;13914;48.178;11.716;2023-01-10T14:16:44;5.80;97.80
26164;DHT22;13914;48.178;11.716;2023-01-10T14:19:23;5.80;98.10
26164;DHT22;13914;48.178;11.716;2023-01-10T14:21:53;5.80;98.10
26164;DHT22;13914;48.178;11.716;2023-01-10T14:24:24;5.80;98.10
26164;DHT22;13914;48.178;11.716;2023-01-10T14:27:11;5.80;97.90
26164;DHT22;13914;48.178;11.716;2023-01-10T14:29:39;5.80;97.80
26164;DHT22;13914;48.178;11.716;2023-01-10T14:32:26;5.80;98.00
26164;DHT22;13914;48.178;11.716;2023-01-10T14:34:53;5.80;98.10
26164;DHT22;13914;48.178;11.716;2023-01-10T14:37:23;5.80;97.50
26164;DHT22;13914;48.178;11.716;2023-01-10T14:39:54;5.80;97.60
26164;DHT22;13914;48.178;11.716;2023-01-10T14:42:20;5.80;97.60
26164;DHT22;13914;48.178;11.716;2023-01-10T14:45:16;5.70;97.40
26164;DHT22;13914;48.178;11.716;2023-01-10T14:47:48;5.70;97.80
26164;DHT22;13914;48.178;11.716;2023-01-10T14:50:23;5.70;97.50
26164;DHT22;13914;48.178;11.716;2023-01-10T14:52:52;5.70;97.60
26164;DHT22;13914;48.178;11.716;2023-01-10T14:55:17;5.70;97.70
26164;DHT22;13914;48.178;11.716;2023-01-10T14:58:18;5.70;97.90
26164;DHT22;13914;48.178;11.716;2023-01-10T15:00:37;5.70;97.80
26164;DHT22;13914;48.178;11.716;2023-01-10T15:03:04;5.70;97.90
26164;DHT22;13914;48.178;11.716;2023-01-10T15:05:37;5.70;97.30
26164;DHT22;13914;48.178;11.716;2023-01-10T15:08:14;5.70;97.70
26164;DHT22;13914;48.178;11.716;2023-01-10T15:10:42;5.70;97.90
26164;DHT22;13914;48.178;11.716;2023-01-10T15:13:09;5.70;97.90
26164;DHT22;13914;48.178;11.716;2023-01-10T15:15:38;5.70;97.90
26164;DHT22;13914;48.178;11.716;2023-01-10T15:20:48;5.70;97.60
26164;DHT22;13914;48.178;11.716;2023-01-10T15:23:14;5.70;97.80
26164;DHT22;13914;48.178;11.716;2023-01-10T15:25:40;5.70;98.10
26164;DHT22;13914;48.178;11.716;2023-01-10T15:28:13;5.60;98.00
26164;DHT22;13914;48.178;11.716;2023-01-10T15:30:40;5.70;98.20
26164;DHT22;13914;48.178;11.716;2023-01-10T15:33:10;5.60;98.10
26164;DHT22;13914;48.178;11.716;2023-01-10T15:35:37;5.60;98.20
26164;DHT22;13914;48.178;11.716;2023-01-10T15:38:07;5.60;98.10
26164;DHT22;13914;48.178;11.716;2023-01-10T15:40:36;5.60;97.90
26164;DHT22;13914;48.178;11.716;2023-01-10T15:43:10;5.50;98.10
26164;DHT22;13914;48.178;11.716;2023-01-10T15:45:39;5.60;98.50
26164;DHT22;13914;48.178;11.716;2023-01-10T15:53:48;5.50;98.20
26164;DHT22;13914;48.178;11.716;2023-01-10T15:56:15;5.50;98.20
26164;DHT22;13914;48.178;11.716;2023-01-10T15:58:43;5.40;98.10
26164;DHT22;13914;48.178;11.716;2023-01-10T16:01:11;5.40;98.60
26164;DHT22;13914;48.178;11.716;2023-01-10T16:04:21;5.40;98.30
26164;DHT22;13914;48.178;11.716;2023-01-10T16:06:29;5.40;98.40
26164;DHT22;13914;48.178;11.716;2023-01-10T16:08:58;5.30;98.40
26164;DHT22;13914;48.178;11.716;2023-01-10T16:11:26;5.30;98.40
26164;DHT22;13914;48.178;11.716;2023-01-10T16:14:20;5.30;98.50
26164;DHT22;13914;48.178;11.716;2023-01-10T16:16:46;5.30;98.50
26164;DHT22;13914;48.178;11.716;2023-01-10T16:19:12;5.20;98.60
26164;DHT22;13914;48.178;11.716;2023-01-10T16:21:38;5.30;98.70
26164;DHT22;13914;48.178;11.716;2023-01-10T16:24:06;5.20;98.70
26164;DHT22;13914;48.178;11.716;2023-01-10T16:26:33;5.20;98.70
26164;DHT22;13914;48.178;11.716;2023-01-10T16:28:58;5.20;98.70
26164;DHT22;13914;48.178;11.716;2023-01-10T16:31:24;5.20;98.70
26164;DHT22;13914;48.178;11.716;2023-01-10T16:33:50;5.20;98.60
26164;DHT22;13914;48.178;11.716;2023-01-10T16:36:17;5.20;98.60
26164;DHT22;13914;48.178;11.716;2023-01-10T16:38:44;5.10;98.60
26164;DHT22;13914;48.178;11.716;2023-01-10T16:41:10;5.10;98.60
26164;DHT22;13914;48.178;11.716;2023-01-10T16:44:00;5.10;98.50
26164;DHT22;13914;48.178;11.716;2023-01-10T16:46:26;5.10;98.60
26164;DHT22;13914;48.178;11.716;2023-01-10T16:48:52;5.10;98.60
26164;DHT22;13914;48.178;11.716;2023-01-10T16:51:20;5.00;98.60
26164;DHT22;13914;48.178;11.716;2023-01-10T16:53:50;5.00;98.60
26164;DHT22;13914;48.178;11.716;2023-01-10T16:56:17;4.90;98.70
26164;DHT22;13914;48.178;11.716;2023-01-10T16:58:45;4.90;98.70
26164;DHT22;13914;48.178;11.716;2023-01-10T17:01:13;4.90;98.80
26164;DHT22;13914;48.178;11.716;2023-01-10T17:03:40;4.90;98.80
26164;DHT22;13914;48.178;11.716;2023-01-10T17:06:07;4.80;98.70
26164;DHT22;13914;48.178;11.716;2023-01-10T17:08:34;4.80;98.80
26164;DHT22;13914;48.178;11.716;2023-01-10T17:11:01;4.80;98.80
26164;DHT22;13914;48.178;11.716;2023-01-10T17:13:28;4.80;98.90
26164;DHT22;13914;48.178;11.716;2023-01-10T17:15:56;4.70;98.90
26164;DHT22;13914;48.178;11.716;2023-01-10T17:18:23;4.70;98.90
26164;DHT22;13914;48.178;11.716;2023-01-10T17:20:53;4.60;99.00
26164;DHT22;13914;48.178;11.716;2023-01-10T17:23:23;4.60;99.00
26164;DHT22;13914;48.178;11.716;2023-01-10T17:25:57;4.60;99.00
26164;DHT22;13914;48.178;11.716;2023-01-10T17:28:24;4.50;99.00
26164;DHT22;13914;48.178;11.716;2023-01-10T17:30:49;4.50;99.00
26164;DHT22;13914;48.178;11.716;2023-01-10T17:33:16;4.50;99.10